Time;durP1;ratioP1;P1;durP2;ratioP2;P2;SDS_P1;SDS_P2;PMS_P1;PMS_P2;Temp;Humidity;BMP_temperature;BMP_pressure;BME280_temperature;BME280_humidity;BME280_pressure;Samples;Min_cycle;Max_cycle;Signal;HPM_P1;HPM_P2
2023/10/26 00:01:37;;;;;;;102.72;37.15;;;9.20;99.90;;;;;;5074728;28;20102;-22
2023/10/26 00:04:03;;;;;;;126.68;39.90;;;9.30;99.90;;;;;;5074038;28;20089;-23
2023/10/26 00:06:29;;;;;;;136.95;41.35;;;9.30;99.90;;;;;;5072902;28;20139;-22
2023/10/26 00:08:54;;;;;;;91.65;36.75;;;8.90;99.90;;;;;;5074044;28;20055;-22
2023/10/26 00:11:20;;;;;;;85.95;36.78;;;9.40;99.90;;;;;;5073796;28;20127;-23
2023/10/26 00:13:46;;;;;;;102.93;38.63;;;9.30;99.90;;;;;;5073126;28;20075;-23
2023/10/26 00:16:11;;;;;;;94.70;38.33;;;9.30;99.90;;;;;;5073949;28;20390;-22
2023/10/26 00:18:37;;;;;;;108.38;40.65;;;9.00;99.90;;;;;;5073538;28;20044;-22
2023/10/26 00:21:03;;;;;;;98.50;38.78;;;9.10;99.90;;;;;;5073847;28;20496;-22
2023/10/26 00:23:29;;;;;;;100.28;40.03;;;9.10;99.90;;;;;;5073561;28;20402;-22
2023/10/26 00:25:54;;;;;;;130.23;43.10;;;9.40;99.90;;;;;;5073461;28;20091;-22
2023/10/26 00:28:20;;;;;;;104.88;41.60;;;9.50;99.90;;;;;;5072549;28;20036;-22
2023/10/26 00:30:46;;;;;;;101.05;39.45;;;9.20;99.90;;;;;;5072497;28;20074;-22
2023/10/26 00:33:12;;;;;;;101.53;40.80;;;9.10;99.90;;;;;;5073790;28;20111;-22
2023/10/26 00:35:38;;;;;;;109.70;43.13;;;9.00;99.90;;;;;;5073968;28;20044;-22
2023/10/26 00:38:04;;;;;;;122.07;42.50;;;9.30;99.90;;;;;;5073696;28;20080;-22
2023/10/26 00:40:30;;;;;;;132.65;44.08;;;9.40;99.90;;;;;;5072462;28;20079;-22
2023/10/26 00:43:04;;;;;;;126.22;43.63;;;8.90;99.90;;;;;;5073653;28;20052;-22
2023/10/26 00:45:34;;;;;;;133.52;42.90;;;8.90;99.90;;;;;;5073955;28;20059;-22
2023/10/26 00:48:00;;;;;;;124.35;41.72;;;9.30;99.90;;;;;;5072106;28;20040;-22
2023/10/26 00:50:26;;;;;;;113.55;42.17;;;9.20;99.90;;;;;;5072424;28;20109;-23
2023/10/26 00:52:53;;;;;;;111.03;43.78;;;8.90;99.90;;;;;;5073511;28;20109;-22
2023/10/26 00:55:19;;;;;;;134.75;44.72;;;8.70;99.90;;;;;;5073532;28;20053;-22
2023/10/26 00:57:45;;;;;;;133.80;45.30;;;8.70;99.90;;;;;;5074310;28;20398;-22
2023/10/26 01:00:12;;;;;;;117.75;44.72;;;8.80;99.90;;;;;;5072303;28;20045;-23
2023/10/26 01:02:38;;;;;;;110.68;44.90;;;8.50;99.90;;;;;;5073458;28;20040;-23
2023/10/26 01:05:04;;;;;;;154.00;48.95;;;8.70;99.90;;;;;;5074188;28;20123;-23
2023/10/26 01:07:30;;;;;;;139.30;47.58;;;8.60;99.90;;;;;;5072118;28;20509;-23
2023/10/26 01:09:57;;;;;;;213.18;52.83;;;8.50;99.90;;;;;;5073019;28;20063;-22
2023/10/26 01:12:23;;;;;;;234.25;55.95;;;8.80;99.90;;;;;;5072784;28;20490;-23
2023/10/26 01:14:49;;;;;;;166.35;49.20;;;8.70;99.90;;;;;;5073846;28;20427;-22
2023/10/26 01:17:15;;;;;;;161.95;48.08;;;8.30;99.90;;;;;;5073292;28;20123;-23
2023/10/26 01:19:47;;;;;;;199.60;52.47;;;8.50;99.90;;;;;;5073274;28;20045;-23
2023/10/26 01:22:13;;;;;;;225.32;52.15;;;8.30;99.90;;;;;;5073267;28;20049;-22
2023/10/26 01:24:39;;;;;;;199.30;50.28;;;8.40;99.90;;;;;;5074057;28;20356;-22
2023/10/26 01:27:06;;;;;;;374.08;60.13;;;8.10;99.90;;;;;;5072724;28;20041;-23
2023/10/26 01:29:32;;;;;;;166.23;47.38;;;8.20;99.90;;;;;;5073474;28;20097;-23
2023/10/26 01:31:58;;;;;;;210.55;50.88;;;8.30;99.90;;;;;;5073166;28;20045;-23
2023/10/26 01:34:25;;;;;;;207.75;50.75;;;8.30;99.90;;;;;;5073978;28;20048;-23
2023/10/26 01:36:51;;;;;;;190.05;51.10;;;8.30;99.90;;;;;;5073152;28;20044;-23
2023/10/26 01:39:17;;;;;;;177.32;50.70;;;8.00;99.90;;;;;;5073095;28;20036;-23
2023/10/26 01:41:44;;;;;;;303.40;58.30;;;8.20;99.90;;;;;;5073103;28;20045;-22
2023/10/26 01:44:10;;;;;;;311.17;48.65;;;8.10;99.90;;;;;;5072130;28;20048;-22
2023/10/26 01:46:36;;;;;;;318.55;49.35;;;8.10;99.90;;;;;;5071958;28;20110;-22
2023/10/26 01:49:03;;;;;;;275.83;47.78;;;7.60;99.90;;;;;;5072078;28;20497;-22
2023/10/26 01:51:28;;;;;;;269.60;46.72;;;7.20;99.90;;;;;;5073026;28;20045;-22
2023/10/26 01:53:54;;;;;;;280.13;49.10;;;7.50;99.90;;;;;;5073006;28;20071;-22
2023/10/26 01:56:20;;;;;;;287.63;49.67;;;7.40;99.90;;;;;;5072975;28;20409;-22
2023/10/26 01:58:46;;;;;;;229.85;46.08;;;7.40;99.90;;;;;;5072860;28;20053;-22
2023/10/26 02:01:12;;;;;;;277.90;49.55;;;7.10;99.90;;;;;;5075204;28;20132;-23
2023/10/26 02:03:38;;;;;;;314.55;50.90;;;7.10;99.90;;;;;;5076467;28;20101;-23
2023/10/26 02:06:04;;;;;;;357.42;54.38;;;7.50;99.90;;;;;;5075092;28;20053;-23
2023/10/26 02:08:30;;;;;;;430.85;56.67;;;7.10;99.90;;;;;;5076051;28;20462;-23
2023/10/26 02:10:56;;;;;;;340.73;47.85;;;7.40;99.90;;;;;;5076323;28;20083;-22
2023/10/26 02:13:22;;;;;;;407.40;54.10;;;7.30;99.90;;;;;;5074865;28;20056;-23
2023/10/26 02:15:48;;;;;;;549.17;61.35;;;7.00;99.90;;;;;;5075269;28;20135;-22
2023/10/26 02:18:13;;;;;;;664.50;66.45;;;7.30;99.90;;;;;;5059341;28;20106;-23
2023/10/26 02:20:39;;;;;;;728.90;71.97;;;7.20;99.90;;;;;;5076185;28;20421;-23
2023/10/26 02:23:05;;;;;;;639.85;69.57;;;7.20;99.90;;;;;;5076124;28;20055;-22
2023/10/26 02:25:31;;;;;;;574.25;66.18;;;7.20;99.90;;;;;;5075999;28;20052;-22
2023/10/26 02:27:57;;;;;;;315.85;55.92;;;7.40;99.90;;;;;;5076795;28;20044;-22
2023/10/26 02:30:23;;;;;;;356.65;58.38;;;7.50;99.90;;;;;;5075952;28;20095;-23
2023/10/26 02:32:49;;;;;;;296.77;56.35;;;7.30;99.90;;;;;;5076180;28;20049;-23
2023/10/26 02:35:16;;;;;;;353.75;56.88;;;7.20;99.90;;;;;;5075953;28;20444;-23
2023/10/26 02:37:42;;;;;;;287.75;53.88;;;7.20;99.90;;;;;;5074923;28;20406;-23
2023/10/26 02:40:11;;;;;;;301.80;56.40;;;7.30;99.90;;;;;;5075778;28;20037;-23
2023/10/26 02:42:38;;;;;;;235.70;54.38;;;7.70;99.90;;;;;;5074621;28;20059;-22
2023/10/26 02:45:08;;;;;;;227.18;55.40;;;7.60;99.90;;;;;;5075998;28;20048;-23
2023/10/26 02:47:34;;;;;;;251.30;58.42;;;8.00;99.90;;;;;;5076398;28;20040;-23
2023/10/26 02:50:00;;;;;;;364.35;64.80;;;8.10;99.90;;;;;;5075670;28;20124;-23
2023/10/26 02:52:26;;;;;;;257.27;61.40;;;8.20;99.90;;;;;;5076157;28;20060;-23
2023/10/26 02:54:52;;;;;;;307.63;63.45;;;8.30;99.90;;;;;;5074346;28;20474;-23
2023/10/26 02:57:17;;;;;;;248.07;58.10;;;8.20;99.90;;;;;;5075438;28;20036;-23
2023/10/26 02:59:43;;;;;;;394.88;68.40;;;8.00;99.90;;;;;;5074253;28;20474;-23
2023/10/26 03:02:09;;;;;;;253.55;61.40;;;8.00;99.90;;;;;;5075595;28;20124;-23
2023/10/26 03:04:35;;;;;;;252.57;59.83;;;8.30;99.90;;;;;;5075441;28;20502;-23
2023/10/26 03:07:01;;;;;;;288.25;63.30;;;8.00;99.90;;;;;;5075188;28;20040;-23
2023/10/26 03:09:28;;;;;;;248.50;61.10;;;8.50;99.90;;;;;;5075200;28;20055;-23
2023/10/26 03:11:55;;;;;;;276.58;64.20;;;8.50;99.90;;;;;;5075052;28;20056;-23
2023/10/26 03:14:21;;;;;;;243.65;60.42;;;8.10;99.90;;;;;;5075132;28;20044;-23
2023/10/26 03:16:47;;;;;;;255.32;61.08;;;8.10;99.90;;;;;;5073790;28;20441;-23
2023/10/26 03:19:13;;;;;;;252.05;58.75;;;8.60;99.90;;;;;;5073814;28;20056;-23
2023/10/26 03:21:39;;;;;;;353.27;67.50;;;8.50;99.90;;;;;;5074933;28;20052;-23
2023/10/26 03:24:05;;;;;;;266.23;60.45;;;8.20;99.90;;;;;;5074918;28;20129;-23
2023/10/26 03:26:31;;;;;;;300.88;64.47;;;8.30;99.90;;;;;;5074791;28;20045;-23
2023/10/26 03:28:56;;;;;;;309.48;61.97;;;8.40;99.90;;;;;;5075643;28;20041;-23
2023/10/26 03:31:22;;;;;;;297.58;63.63;;;7.90;99.90;;;;;;5074731;28;20544;-23
2023/10/26 03:33:48;;;;;;;395.00;68.88;;;8.30;99.90;;;;;;5074662;28;20088;-23
2023/10/26 03:36:15;;;;;;;280.27;61.20;;;8.30;99.90;;;;;;5074685;28;20049;-23
2023/10/26 03:38:42;;;;;;;272.45;61.45;;;7.80;99.90;;;;;;5074605;28;20054;-23
2023/10/26 03:41:08;;;;;;;280.67;64.32;;;8.10;99.90;;;;;;5074597;28;20036;-23
2023/10/26 03:43:34;;;;;;;292.92;61.53;;;8.20;99.90;;;;;;5074542;28;20048;-23
2023/10/26 03:46:00;;;;;;;403.85;67.75;;;7.80;99.90;;;;;;5074522;28;20051;-23
2023/10/26 03:48:25;;;;;;;819.40;87.30;;;7.80;99.90;;;;;;5074037;28;20048;-23
2023/10/26 03:50:51;;;;;;;1036.18;92.45;;;7.50;99.90;;;;;;5074899;28;20045;-23
2023/10/26 03:53:17;;;;;;;768.88;80.63;;;7.70;99.90;;;;;;5074374;28;20101;-23
2023/10/26 03:55:43;;;;;;;796.92;87.35;;;7.40;99.90;;;;;;5074304;28;20387;-23
2023/10/26 03:58:10;;;;;;;1187.22;100.20;;;7.40;99.90;;;;;;5074483;28;20044;-23
2023/10/26 04:00:36;;;;;;;1008.58;91.80;;;7.50;99.90;;;;;;5074215;28;20406;-23
2023/10/26 04:03:02;;;;;;;1075.57;91.53;;;7.30;99.90;;;;;;5074435;28;20045;-23
2023/10/26 04:05:28;;;;;;;759.40;74.63;;;7.70;99.90;;;;;;5074179;28;20044;-23
2023/10/26 04:07:56;;;;;;;923.78;83.18;;;7.70;99.90;;;;;;5074008;28;20041;-24
2023/10/26 04:10:22;;;;;;;1096.03;91.30;;;7.20;99.90;;;;;;5072893;28;20052;-23
2023/10/26 04:12:48;;;;;;;975.35;74.45;;;7.30;99.90;;;;;;5073592;28;20063;-23
2023/10/26 04:15:14;;;;;;;1160.78;78.32;;;7.00;99.90;;;;;;5073952;28;20055;-23
2023/10/26 04:17:39;;;;;;;1111.72;73.88;;;7.10;99.90;;;;;;5073918;28;20076;-23
2023/10/26 04:20:07;;;;;;;979.80;71.55;;;7.00;99.90;;;;;;5073923;28;20051;-23
2023/10/26 04:22:33;;;;;;;974.60;70.90;;;7.10;99.90;;;;;;5073411;28;20040;-23
2023/10/26 04:24:59;;;;;;;1033.78;67.78;;;7.00;99.90;;;;;;5073932;28;20059;-23
2023/10/26 04:27:25;;;;;;;984.88;65.47;;;6.90;99.90;;;;;;5074334;28;20481;-23
2023/10/26 04:29:51;;;;;;;778.33;55.35;;;6.80;99.90;;;;;;5073840;28;20131;-23
2023/10/26 04:32:17;;;;;;;789.00;57.38;;;6.50;99.90;;;;;;5073723;28;20127;-23
2023/10/26 04:34:46;;;;;;;770.60;58.25;;;6.60;99.90;;;;;;5073731;28;20203;-23
2023/10/26 04:37:12;;;;;;;880.10;64.65;;;6.50;99.90;;;;;;5073013;28;20087;-23
2023/10/26 04:39:41;;;;;;;868.42;63.58;;;6.70;99.90;;;;;;5073672;28;20098;-23
2023/10/26 04:42:07;;;;;;;882.40;61.03;;;6.70;99.90;;;;;;5074432;28;20133;-23
2023/10/26 04:44:33;;;;;;;906.20;59.92;;;6.70;99.90;;;;;;5074167;28;20583;-23
2023/10/26 04:46:59;;;;;;;840.20;57.35;;;6.30;99.90;;;;;;5074112;28;20067;-23
2023/10/26 04:49:24;;;;;;;766.72;58.25;;;6.20;99.90;;;;;;5056824;28;20045;-23
2023/10/26 04:51:50;;;;;;;484.00;46.85;;;6.60;99.90;;;;;;5072622;28;20127;-23
2023/10/26 04:54:16;;;;;;;562.55;52.35;;;6.50;99.90;;;;;;5073771;28;20057;-23
2023/10/26 04:56:42;;;;;;;695.58;59.50;;;6.40;99.90;;;;;;5073557;28;20048;-23
2023/10/26 04:59:08;;;;;;;618.42;58.22;;;6.20;99.90;;;;;;5072511;28;20479;-23
2023/10/26 05:01:33;;;;;;;510.30;59.72;;;6.30;99.90;;;;;;5072487;28;20049;-23
2023/10/26 05:03:59;;;;;;;850.97;77.85;;;6.60;99.90;;;;;;5073433;28;20040;-23
2023/10/26 05:06:25;;;;;;;537.38;63.85;;;6.70;99.90;;;;;;5073342;28;20052;-23
2023/10/26 05:08:51;;;;;;;561.88;66.18;;;7.00;99.90;;;;;;5073316;28;20045;-23
2023/10/26 05:11:16;;;;;;;445.30;61.70;;;6.70;99.90;;;;;;5073153;28;20052;-24
2023/10/26 05:13:42;;;;;;;530.85;64.45;;;7.30;99.90;;;;;;5072230;28;20128;-23
2023/10/26 05:16:08;;;;;;;843.60;79.63;;;6.80;99.90;;;;;;5073324;28;20045;-23
2023/10/26 05:18:34;;;;;;;641.63;75.65;;;6.70;99.90;;;;;;5073321;28;20076;-24
2023/10/26 05:20:59;;;;;;;372.52;60.63;;;7.10;99.90;;;;;;5073253;28;20105;-24
2023/10/26 05:23:26;;;;;;;432.80;63.25;;;7.00;99.90;;;;;;5073503;28;20045;-23
2023/10/26 05:25:52;;;;;;;955.42;85.05;;;6.80;99.90;;;;;;5073796;28;20041;-23
2023/10/26 05:28:17;;;;;;;277.83;53.70;;;6.80;99.90;;;;;;5073147;28;20041;-23
2023/10/26 05:30:43;;;;;;;346.20;56.50;;;6.90;99.90;;;;;;5073171;28;20079;-23
2023/10/26 05:33:09;;;;;;;529.80;66.75;;;6.70;99.90;;;;;;5073748;28;20056;-23
2023/10/26 05:35:35;;;;;;;814.83;82.30;;;7.20;99.90;;;;;;5075751;28;20048;-24
2023/10/26 05:38:03;;;;;;;1230.13;89.00;;;7.00;99.90;;;;;;5077528;28;20470;-24
2023/10/26 05:40:30;;;;;;;1239.13;83.20;;;7.00;99.90;;;;;;5077427;28;20538;-23
2023/10/26 05:42:55;;;;;;;1220.85;83.72;;;6.80;99.90;;;;;;5076807;28;20433;-23
2023/10/26 05:45:21;;;;;;;1026.63;70.82;;;6.30;99.90;;;;;;5076801;28;20048;-23
2023/10/26 05:47:52;;;;;;;920.83;68.47;;;6.10;99.90;;;;;;5076635;28;20103;-23
2023/10/26 05:50:19;;;;;;;739.38;63.00;;;6.50;99.90;;;;;;5076700;28;20052;-23
2023/10/26 05:52:45;;;;;;;824.22;70.28;;;6.00;99.90;;;;;;5075680;28;20052;-23
2023/10/26 05:55:11;;;;;;;702.88;57.72;;;5.90;99.90;;;;;;5076626;28;20053;-23
2023/10/26 05:57:37;;;;;;;914.40;64.85;;;5.90;99.90;;;;;;5076395;28;20049;-23
2023/10/26 06:00:06;;;;;;;978.90;68.63;;;6.00;99.90;;;;;;5076515;28;20131;-23
2023/10/26 06:02:32;;;;;;;950.08;64.25;;;6.10;99.90;;;;;;5076453;28;20052;-23
2023/10/26 06:04:58;;;;;;;995.13;70.72;;;6.30;99.90;;;;;;5076919;28;20049;-23
2023/10/26 06:07:24;;;;;;;937.05;66.03;;;5.70;99.90;;;;;;5075974;28;20406;-23
2023/10/26 06:09:50;;;;;;;904.78;64.57;;;5.70;99.90;;;;;;5076365;28;20060;-23
2023/10/26 06:12:17;;;;;;;1049.45;72.18;;;6.00;99.90;;;;;;5075937;28;20059;-23
2023/10/26 06:14:43;;;;;;;845.88;64.13;;;5.90;99.90;;;;;;5076256;28;20140;-23
2023/10/26 06:17:10;;;;;;;939.13;62.75;;;5.90;99.90;;;;;;5077034;28;20383;-22
2023/10/26 06:19:35;;;;;;;919.40;61.55;;;5.50;99.90;;;;;;5076120;28;20056;-23
2023/10/26 06:22:01;;;;;;;868.20;61.75;;;5.60;99.90;;;;;;5076056;28;20044;-23
2023/10/26 06:24:28;;;;;;;692.25;53.05;;;5.50;99.90;;;;;;5076099;28;20056;-23
2023/10/26 06:26:54;;;;;;;845.47;59.55;;;5.40;99.90;;;;;;5075974;28;20040;-23
2023/10/26 06:29:20;;;;;;;859.42;60.60;;;5.60;99.90;;;;;;5076821;28;20474;-23
2023/10/26 06:31:45;;;;;;;788.25;61.50;;;6.00;99.90;;;;;;5076002;28;20449;-23
2023/10/26 06:34:11;;;;;;;788.65;64.50;;;5.50;99.90;;;;;;5075935;28;20059;-23
2023/10/26 06:36:37;;;;;;;761.10;58.08;;;5.70;99.90;;;;;;5076455;28;20044;-23
2023/10/26 06:39:03;;;;;;;758.78;58.78;;;5.80;99.90;;;;;;5074612;28;20044;-23
2023/10/26 06:41:29;;;;;;;725.45;55.92;;;5.60;99.90;;;;;;5075767;28;20097;-22
2023/10/26 06:43:55;;;;;;;507.42;47.55;;;5.40;99.90;;;;;;5075722;28;20132;-23
2023/10/26 06:46:21;;;;;;;607.83;54.97;;;5.90;99.90;;;;;;5075231;28;20471;-23
2023/10/26 06:48:48;;;;;;;863.03;66.95;;;5.60;99.90;;;;;;5075548;28;20101;-23
2023/10/26 06:51:14;;;;;;;820.13;70.45;;;5.90;99.90;;;;;;5075574;28;20095;-23
2023/10/26 06:53:40;;;;;;;794.35;76.75;;;5.60;99.90;;;;;;5075534;28;20095;-23
2023/10/26 06:56:12;;;;;;;848.75;81.82;;;6.30;99.90;;;;;;5075762;28;20048;-23
2023/10/26 06:58:39;;;;;;;982.58;89.22;;;6.10;99.90;;;;;;5075742;28;20045;-23
2023/10/26 07:01:07;;;;;;;887.58;80.22;;;6.60;99.90;;;;;;5075414;28;20056;-23
2023/10/26 07:03:33;;;;;;;834.22;68.80;;;6.50;99.90;;;;;;5075608;28;20379;-23
2023/10/26 07:06:03;;;;;;;783.70;66.22;;;6.60;99.90;;;;;;5074239;28;20537;-22
2023/10/26 07:08:29;;;;;;;754.17;63.80;;;6.40;99.90;;;;;;5075209;28;20133;-23
2023/10/26 07:10:55;;;;;;;319.92;51.38;;;5.90;99.90;;;;;;5075222;28;20076;-23
2023/10/26 07:13:21;;;;;;;642.80;63.67;;;6.50;99.90;;;;;;5074607;28;20055;-23
2023/10/26 07:15:47;;;;;;;518.40;61.53;;;6.20;99.90;;;;;;5075918;28;20044;-23
2023/10/26 07:18:18;;;;;;;277.42;52.88;;;6.20;99.90;;;;;;5075280;28;20430;-23
2023/10/26 07:20:49;;;;;;;562.70;62.00;;;6.80;99.90;;;;;;5075052;28;20053;-23
2023/10/26 07:23:16;;;;;;;328.48;54.17;;;6.80;99.90;;;;;;5075571;28;20048;-23
2023/10/26 07:25:42;;;;;;;281.90;55.05;;;6.40;99.90;;;;;;5074897;28;20044;-23
2023/10/26 07:28:08;;;;;;;282.77;57.90;;;7.10;99.90;;;;;;5075297;28;20053;-23
2023/10/26 07:30:43;;;;;;;334.02;57.70;;;7.40;99.90;;;;;;5075590;28;20055;-23
2023/10/26 07:33:09;;;;;;;351.00;62.22;;;7.60;99.90;;;;;;5074747;28;20045;-23
2023/10/26 07:35:40;;;;;;;273.63;60.58;;;7.50;99.90;;;;;;5074705;28;20158;-23
2023/10/26 07:38:09;;;;;;;434.50;69.18;;;7.50;99.90;;;;;;5073442;28;20055;-23
2023/10/26 07:40:37;;;;;;;327.85;61.70;;;7.70;99.90;;;;;;5073416;28;20429;-23
2023/10/26 07:43:03;;;;;;;272.63;60.03;;;7.60;99.90;;;;;;5074229;28;20383;-23
2023/10/26 07:45:29;;;;;;;372.60;64.10;;;7.70;99.90;;;;;;5074571;28;20055;-23
2023/10/26 07:47:58;;;;;;;266.35;58.78;;;8.00;99.90;;;;;;5074388;28;20154;-23
2023/10/26 07:50:24;;;;;;;287.38;60.17;;;7.90;99.90;;;;;;5074407;28;20371;-23
2023/10/26 07:52:50;;;;;;;215.35;55.90;;;8.60;99.90;;;;;;5074315;28;20067;-23
2023/10/26 07:55:17;;;;;;;212.02;55.75;;;8.70;99.90;;;;;;5074593;28;20048;-23
2023/10/26 07:57:42;;;;;;;294.25;58.63;;;8.50;99.90;;;;;;5073496;28;20474;-23
2023/10/26 08:00:11;;;;;;;275.08;59.05;;;8.40;99.90;;;;;;5074313;28;20043;-23
2023/10/26 08:02:37;;;;;;;209.40;52.90;;;8.70;99.90;;;;;;5074181;28;20127;-23
2023/10/26 08:05:03;;;;;;;240.00;55.83;;;9.00;99.90;;;;;;5073088;28;20048;-24
2023/10/26 08:07:29;;;;;;;294.10;58.45;;;9.20;99.90;;;;;;5073698;28;20058;-23
2023/10/26 08:09:56;;;;;;;191.88;52.13;;;9.20;99.90;;;;;;5074077;28;20048;-23
2023/10/26 08:12:25;;;;;;;215.50;53.92;;;8.90;99.90;;;;;;5072736;28;20052;-23
2023/10/26 08:14:53;;;;;;;230.10;55.38;;;9.00;99.90;;;;;;5073672;28;20490;-23
2023/10/26 08:17:19;;;;;;;210.48;53.67;;;9.00;99.90;;;;;;5073974;28;20055;-23
2023/10/26 08:19:44;;;;;;;223.57;54.80;;;9.10;99.90;;;;;;5074220;28;20119;-23
2023/10/26 08:22:12;;;;;;;229.05;53.85;;;9.10;99.90;;;;;;5074447;28;20041;-23
2023/10/26 08:24:38;;;;;;;182.88;50.83;;;9.10;99.90;;;;;;5055977;28;20559;-23
2023/10/26 08:27:04;;;;;;;215.25;52.88;;;9.40;99.90;;;;;;5073751;28;20036;-23
2023/10/26 08:29:29;;;;;;;202.68;51.90;;;9.60;99.90;;;;;;5073858;28;20098;-23
2023/10/26 08:31:56;;;;;;;182.55;49.63;;;9.40;99.90;;;;;;5073723;28;20479;-23
2023/10/26 08:34:22;;;;;;;179.13;48.97;;;9.60;99.90;;;;;;5077931;28;20127;-23
2023/10/26 08:36:47;;;;;;;206.82;51.03;;;9.20;99.90;;;;;;5079735;28;20506;-24
2023/10/26 08:39:13;;;;;;;229.77;51.22;;;9.50;99.90;;;;;;5093848;28;20065;-23
2023/10/26 08:41:51;;;;;;;213.25;51.30;;;9.40;99.90;;;;;;5085727;28;20041;-24
2023/10/26 08:44:17;;;;;;;177.75;47.13;;;9.40;99.90;;;;;;5073704;28;20113;-23
2023/10/26 08:46:51;;;;;;;177.80;48.88;;;9.90;99.90;;;;;;5073902;28;20048;-23
2023/10/26 08:49:17;;;;;;;200.65;50.83;;;9.40;99.90;;;;;;5072957;28;20053;-23
2023/10/26 08:51:43;;;;;;;145.90;45.47;;;9.90;99.90;;;;;;5089925;28;20044;-24
2023/10/26 08:54:09;;;;;;;148.55;44.88;;;9.50;99.90;;;;;;5094100;28;20070;-24
2023/10/26 08:56:35;;;;;;;131.48;42.60;;;9.50;99.90;;;;;;5092716;28;20080;-23
2023/10/26 08:59:03;;;;;;;152.48;42.97;;;9.80;99.90;;;;;;5093662;28;20457;-23
2023/10/26 09:01:29;;;;;;;143.98;42.60;;;9.80;99.90;;;;;;5093677;28;20124;-23
2023/10/26 09:03:54;;;;;;;131.77;42.75;;;9.50;99.90;;;;;;5093625;28;20460;-23
2023/10/26 09:06:20;;;;;;;169.70;44.83;;;9.30;99.90;;;;;;5093622;28;20048;-23
2023/10/26 09:09:02;;;;;;;167.30;46.92;;;9.70;99.90;;;;;;5082454;28;20084;-24
2023/10/26 09:11:28;;;;;;;173.35;45.42;;;9.40;99.90;;;;;;5076838;28;20055;-24
2023/10/26 09:13:54;;;;;;;161.75;45.58;;;9.70;99.90;;;;;;5060144;28;20048;-23
2023/10/26 09:16:34;;;;;;;182.73;48.67;;;10.00;99.90;;;;;;5077417;28;20563;-23
2023/10/26 09:19:00;;;;;;;174.07;47.95;;;10.10;99.90;;;;;;5077421;28;20040;-23
2023/10/26 09:21:26;;;;;;;157.93;46.08;;;9.80;99.90;;;;;;5077278;28;20059;-23
2023/10/26 09:23:52;;;;;;;183.50;49.72;;;10.20;99.90;;;;;;5076042;28;20051;-23
2023/10/26 09:26:17;;;;;;;182.00;50.50;;;10.20;99.90;;;;;;5076024;28;20099;-23
2023/10/26 09:28:56;;;;;;;172.50;49.20;;;10.10;99.90;;;;;;5077006;28;20094;-23
2023/10/26 09:31:23;;;;;;;184.93;50.95;;;10.00;99.90;;;;;;5077395;28;20048;-22
2023/10/26 09:33:50;;;;;;;189.45;52.33;;;9.70;99.90;;;;;;5077040;28;20055;-22
2023/10/26 09:36:18;;;;;;;184.48;53.03;;;10.10;99.90;;;;;;5076738;28;20521;-22
2023/10/26 09:38:44;;;;;;;188.50;52.55;;;10.10;99.90;;;;;;5075442;28;20041;-23
2023/10/26 09:41:12;;;;;;;192.35;53.45;;;10.00;99.90;;;;;;5060194;28;20103;-23
2023/10/26 09:43:42;;;;;;;142.65;44.88;;;9.90;99.90;;;;;;5077115;28;20045;-22
2023/10/26 09:46:08;;;;;;;142.15;44.35;;;9.70;99.90;;;;;;5075823;28;20371;-23
2023/10/26 09:48:34;;;;;;;130.38;41.50;;;9.60;99.90;;;;;;5075261;28;20048;-23
2023/10/26 09:51:01;;;;;;;140.82;43.88;;;9.60;99.90;;;;;;5076697;28;20052;-23
2023/10/26 09:53:33;;;;;;;141.50;43.38;;;10.00;99.90;;;;;;5076325;28;20494;-23
2023/10/26 09:56:04;;;;;;;126.57;42.50;;;10.00;99.90;;;;;;5075425;28;20048;-23
2023/10/26 09:58:39;;;;;;;142.73;44.80;;;9.90;99.90;;;;;;5077178;28;20091;-23
2023/10/26 10:01:33;;;;;;;143.02;44.05;;;9.90;99.90;;;;;;5077177;28;20084;-23
2023/10/26 10:04:00;;;;;;;112.05;42.10;;;9.80;99.90;;;;;;5075327;28;20079;-23
2023/10/26 10:06:50;;;;;;;100.28;38.90;;;9.90;99.90;;;;;;5041879;28;20040;-23
2023/10/26 10:09:19;;;;;;;107.70;40.35;;;10.00;99.90;;;;;;5076365;28;20052;-23
2023/10/26 10:11:46;;;;;;;110.28;39.13;;;10.10;99.90;;;;;;5077030;28;20068;-23
2023/10/26 10:15:03;;;;;;;108.15;39.55;;;10.10;99.90;;;;;;5075412;28;20053;-23
2023/10/26 10:17:44;;;;;;;96.53;38.17;;;10.20;99.90;;;;;;5014333;28;20077;-23
2023/10/26 10:20:16;;;;;;;98.47;39.55;;;10.20;99.90;;;;;;5075303;28;20053;-23
2023/10/26 10:22:50;;;;;;;91.25;37.78;;;10.40;99.90;;;;;;5076194;28;20053;-23
2023/10/26 10:25:20;;;;;;;76.93;36.65;;;10.60;99.90;;;;;;5075301;28;20052;-23
2023/10/26 10:27:48;;;;;;;75.05;35.42;;;10.60;99.90;;;;;;5075617;28;20502;-23
2023/10/26 10:30:18;;;;;;;80.60;37.38;;;10.60;99.90;;;;;;5074678;28;20087;-24
2023/10/26 10:32:44;;;;;;;81.75;36.25;;;10.60;99.90;;;;;;5076148;28;20097;-23
2023/10/26 10:35:33;;;;;;;72.20;33.63;;;10.80;99.90;;;;;;5074396;28;20052;-23
2023/10/26 10:38:14;;;;;;;73.50;34.60;;;10.90;99.90;;;;;;5058479;28;20044;-23
2023/10/26 10:40:41;;;;;;;64.43;34.25;;;10.90;99.90;;;;;;5076644;28;20135;-24
2023/10/26 10:43:07;;;;;;;71.30;33.80;;;11.00;99.90;;;;;;5075761;28;20045;-23
2023/10/26 10:45:33;;;;;;;57.25;32.10;;;11.00;99.90;;;;;;5075731;28;20048;-24
2023/10/26 10:47:58;;;;;;;49.55;30.20;;;11.00;99.90;;;;;;5075569;28;20037;-24
2023/10/26 10:50:26;;;;;;;50.97;30.50;;;11.00;99.90;;;;;;5075610;28;20044;-24
2023/10/26 10:52:56;;;;;;;55.40;30.10;;;11.00;99.90;;;;;;5057543;28;20513;-24
2023/10/26 10:55:29;;;;;;;57.55;31.80;;;11.10;99.90;;;;;;5074620;28;20045;-23
2023/10/26 10:58:00;;;;;;;51.78;30.42;;;11.10;99.90;;;;;;5075325;28;20032;-24
2023/10/26 11:00:48;;;;;;;48.45;28.92;;;11.10;99.90;;;;;;5075292;28;20058;-24
2023/10/26 11:03:24;;;;;;;42.60;27.23;;;11.10;99.90;;;;;;5075276;28;20054;-24
2023/10/26 11:05:50;;;;;;;45.33;27.55;;;11.10;99.90;;;;;;5074189;28;20483;-24
2023/10/26 11:08:16;;;;;;;42.42;26.77;;;11.00;99.90;;;;;;5075278;28;20102;-24
2023/10/26 11:10:48;;;;;;;52.00;28.80;;;11.00;99.90;;;;;;5075489;28;20048;-24
2023/10/26 11:13:22;;;;;;;41.92;28.40;;;11.00;99.90;;;;;;5075848;28;20056;-24
2023/10/26 11:15:48;;;;;;;44.85;28.20;;;11.00;99.90;;;;;;5057924;28;20044;-24
2023/10/26 11:18:14;;;;;;;44.28;27.23;;;10.80;99.90;;;;;;5073817;28;20098;-24
2023/10/26 11:20:47;;;;;;;40.60;27.85;;;10.80;99.90;;;;;;5075009;28;20049;-24
2023/10/26 11:23:16;;;;;;;41.58;27.35;;;10.80;99.90;;;;;;5075323;28;20067;-24
2023/10/26 11:25:44;;;;;;;51.38;29.95;;;10.80;99.90;;;;;;5074707;28;20530;-24
2023/10/26 11:28:10;;;;;;;44.83;28.75;;;10.70;99.90;;;;;;5074772;28;20036;-24
2023/10/26 11:30:53;;;;;;;40.55;27.85;;;10.80;99.90;;;;;;5040337;28;20051;-24
2023/10/26 11:33:43;;;;;;;40.25;26.52;;;10.80;99.90;;;;;;5074780;28;20053;-24
2023/10/26 11:36:10;;;;;;;50.25;29.65;;;11.00;99.90;;;;;;5058395;28;20079;-24
2023/10/26 11:38:45;;;;;;;45.97;29.50;;;11.10;99.90;;;;;;5074876;28;20118;-24
2023/10/26 11:41:30;;;;;;;42.45;29.55;;;11.10;99.90;;;;;;5075254;28;20091;-24
2023/10/26 11:44:00;;;;;;;46.33;29.98;;;11.10;99.90;;;;;;5075414;28;20084;-24
2023/10/26 11:46:34;;;;;;;49.25;27.65;;;11.10;99.90;;;;;;5074799;28;20056;-24
2023/10/26 11:49:00;;;;;;;;;;;11.10;99.90;;;;;;5075482;28;20049;-24
2023/10/26 11:51:26;;;;;;;41.92;26.88;;;11.20;99.90;;;;;;5073447;28;19920;-24
2023/10/26 11:53:51;;;;;;;41.88;28.67;;;11.30;99.90;;;;;;5056670;28;20044;-24
2023/10/26 11:56:18;;;;;;;40.55;28.45;;;11.40;99.90;;;;;;5074276;28;20071;-24
2023/10/26 11:58:44;;;;;;;38.13;26.55;;;11.40;99.90;;;;;;5074365;28;20055;-24
2023/10/26 12:01:09;;;;;;;39.13;26.90;;;11.40;99.90;;;;;;5074234;28;20052;-24
2023/10/26 12:03:35;;;;;;;37.80;26.77;;;11.50;99.90;;;;;;5072906;28;20044;-24
2023/10/26 12:06:01;;;;;;;39.13;26.85;;;11.60;99.90;;;;;;5073063;28;20131;-24
2023/10/26 12:08:27;;;;;;;38.05;27.20;;;11.60;99.90;;;;;;5073620;28;20048;-24
2023/10/26 12:10:53;;;;;;;38.78;26.98;;;11.60;99.90;;;;;;5072742;28;20102;-25
2023/10/26 12:13:19;;;;;;;38.63;26.15;;;11.60;99.90;;;;;;5074213;28;20056;-24
2023/10/26 12:15:44;;;;;;;38.17;26.35;;;11.70;99.90;;;;;;5072750;28;20056;-24
2023/10/26 12:18:11;;;;;;;36.10;25.48;;;11.80;99.90;;;;;;5073975;28;20121;-24
2023/10/26 12:20:38;;;;;;;36.83;25.10;;;11.70;99.90;;;;;;5073913;28;20048;-25
2023/10/26 12:23:04;;;;;;;38.53;24.38;;;11.80;99.90;;;;;;5056106;28;20547;-25
2023/10/26 12:25:30;;;;;;;37.88;25.30;;;11.90;99.90;;;;;;5073851;28;20132;-25
2023/10/26 12:27:58;;;;;;;38.88;26.58;;;12.00;99.90;;;;;;5073776;28;20058;-25